createdAt,value
2023-04-30T00:00:35.847Z,8.63
2023-04-30T00:03:02.560Z,8.76
2023-04-30T00:05:28.976Z,8.79
2023-04-30T00:07:55.459Z,8.40
2023-04-30T00:10:22.004Z,8.46
2023-04-30T00:12:48.445Z,8.55
2023-04-30T00:15:15.003Z,8.39
2023-04-30T00:17:41.490Z,8.54
2023-04-30T00:20:08.385Z,8.56
2023-04-30T00:22:35.009Z,8.28
2023-04-30T00:25:01.743Z,8.31
2023-04-30T00:27:28.319Z,8.52
2023-04-30T00:29:55.661Z,8.20
2023-04-30T00:32:22.472Z,8.20
2023-04-30T00:34:49.038Z,8.29
2023-04-30T00:37:15.889Z,8.12
2023-04-30T00:39:42.228Z,8.11
2023-04-30T00:42:08.721Z,7.75
2023-04-30T00:44:35.248Z,7.96
2023-04-30T00:47:01.713Z,7.73
2023-04-30T00:49:28.226Z,8.01
2023-04-30T00:51:54.924Z,7.82
2023-04-30T00:54:21.497Z,7.96
2023-04-30T00:56:48.161Z,7.65
2023-04-30T00:59:14.964Z,7.66
2023-04-30T01:01:42.282Z,7.90
2023-04-30T01:04:09.078Z,7.56
2023-04-30T01:06:35.662Z,7.60
2023-04-30T01:09:02.217Z,7.79
2023-04-30T01:11:34.244Z,7.92
2023-04-30T01:14:13.647Z,7.65
2023-04-30T01:17:06.345Z,7.56
2023-04-30T01:19:43.353Z,7.49
2023-04-30T01:22:17.103Z,7.38
2023-04-30T01:25:09.412Z,7.26
2023-04-30T01:28:03.826Z,7.31
2023-04-30T01:30:32.318Z,7.17
2023-04-30T01:32:59.274Z,7.25
2023-04-30T01:51:01.028Z,5.91
2023-04-30T01:53:42.599Z,6.37
2023-04-30T01:56:32.684Z,6.54
2023-04-30T01:59:00.576Z,6.65
2023-04-30T02:01:33.430Z,6.67
2023-04-30T02:04:00.416Z,6.74
2023-04-30T02:06:28.703Z,6.60
2023-04-30T02:08:56.641Z,6.62
2023-04-30T02:11:26.272Z,6.45
2023-04-30T02:13:52.742Z,6.43
2023-04-30T02:16:19.276Z,6.58
2023-04-30T02:18:46.542Z,6.33
2023-04-30T02:21:13.244Z,6.39
2023-04-30T02:23:39.766Z,6.57
2023-04-30T02:26:06.253Z,5.99
2023-04-30T02:28:32.699Z,6.16
2023-04-30T02:30:59.267Z,6.22
2023-04-30T02:33:25.877Z,6.41
2023-04-30T02:35:52.323Z,6.24
2023-04-30T02:38:18.789Z,6.10
2023-04-30T02:40:45.267Z,5.97
2023-04-30T02:43:11.780Z,6.21
2023-04-30T02:45:38.226Z,6.15
2023-04-30T02:48:04.914Z,6.09
2023-04-30T02:50:31.402Z,6.04
2023-04-30T02:52:57.960Z,6.30
2023-04-30T02:55:24.535Z,6.07
2023-04-30T02:57:52.890Z,6.08
2023-04-30T03:00:19.621Z,6.13
2023-04-30T03:02:46.496Z,6.24
2023-04-30T03:05:13.335Z,5.88
2023-04-30T03:07:39.761Z,5.85
2023-04-30T03:10:06.898Z,5.68
2023-04-30T03:12:33.333Z,5.67
2023-04-30T03:14:59.801Z,5.55
2023-04-30T03:17:26.258Z,5.34
2023-04-30T03:19:52.935Z,5.64
2023-04-30T03:22:20.455Z,5.61
2023-04-30T03:24:46.879Z,5.64
2023-04-30T03:27:14.313Z,5.72
2023-04-30T03:29:40.763Z,5.54
2023-04-30T03:32:07.269Z,5.41
2023-04-30T03:34:33.741Z,5.63
2023-04-30T03:37:01.823Z,5.59
2023-04-30T03:39:28.311Z,5.75
2023-04-30T03:41:54.772Z,5.42
2023-04-30T03:44:21.281Z,5.55
2023-04-30T03:46:47.708Z,5.57
2023-04-30T03:49:14.177Z,5.72
2023-04-30T03:51:42.039Z,5.63
2023-04-30T03:54:09.017Z,5.73
2023-04-30T03:56:36.504Z,5.67
2023-04-30T03:59:03.098Z,5.54
2023-04-30T04:01:30.764Z,5.80
2023-04-30T04:03:57.335Z,5.70
2023-04-30T04:06:23.926Z,5.62
2023-04-30T04:08:50.529Z,5.71
2023-04-30T04:11:16.966Z,5.77
2023-04-30T04:13:43.401Z,5.67
2023-04-30T04:16:09.886Z,5.83
2023-04-30T04:18:36.636Z,5.64
2023-04-30T04:21:03.040Z,5.86
2023-04-30T04:23:29.660Z,5.66
2023-04-30T04:25:57.495Z,5.68
2023-04-30T04:28:24.133Z,5.71
2023-04-30T04:30:50.570Z,5.84
2023-04-30T04:33:17.566Z,5.73
2023-04-30T04:35:43.996Z,6.05
2023-04-30T04:38:10.492Z,6.12
2023-04-30T04:40:37.534Z,6.18
2023-04-30T04:43:04.012Z,6.14
2023-04-30T04:45:31.460Z,6.26
2023-04-30T04:47:58.014Z,6.24
2023-04-30T04:50:24.632Z,6.30
2023-04-30T04:52:53.514Z,6.13
2023-04-30T04:55:20.076Z,6.38
2023-04-30T04:57:46.664Z,6.51
2023-04-30T05:00:13.295Z,6.53
2023-04-30T05:02:39.987Z,6.53
2023-04-30T05:05:06.955Z,6.67
2023-04-30T05:07:35.040Z,6.35
2023-04-30T05:10:01.500Z,6.26
2023-04-30T05:12:27.929Z,6.57
2023-04-30T05:14:54.440Z,6.75
2023-04-30T05:17:20.905Z,6.77
2023-04-30T05:19:49.033Z,6.77
2023-04-30T05:22:15.478Z,6.75
2023-04-30T05:24:42.095Z,6.64
2023-04-30T05:27:09.154Z,6.50
2023-04-30T05:29:35.730Z,6.65
2023-04-30T05:32:02.237Z,6.94
2023-04-30T05:34:28.770Z,6.69
2023-04-30T05:36:55.874Z,6.71
2023-04-30T05:39:22.471Z,6.93
2023-04-30T05:41:49.150Z,6.71
2023-04-30T05:44:15.577Z,6.95
2023-04-30T05:46:42.492Z,6.32
2023-04-30T05:49:09.396Z,6.47
2023-04-30T05:51:35.927Z,6.89
2023-04-30T05:54:02.377Z,6.94
2023-04-30T05:56:28.834Z,7.27
2023-04-30T05:58:55.281Z,7.08
2023-04-30T06:01:22.361Z,7.54
2023-04-30T06:03:49.089Z,7.82
2023-04-30T06:06:15.698Z,8.22
2023-04-30T06:08:45.198Z,8.10
2023-04-30T06:11:15.409Z,8.05
2023-04-30T06:13:42.007Z,7.99
2023-04-30T06:16:08.837Z,8.06
2023-04-30T06:18:35.562Z,7.86
2023-04-30T06:21:02.214Z,8.24
2023-04-30T06:23:28.744Z,8.41
2023-04-30T06:25:55.183Z,8.69
2023-04-30T06:28:21.622Z,7.62
2023-04-30T06:30:48.075Z,8.34
2023-04-30T06:33:14.505Z,8.52
2023-04-30T06:35:40.969Z,7.93
2023-04-30T06:38:07.483Z,8.30
2023-04-30T06:40:34.368Z,8.07
2023-04-30T06:43:00.896Z,7.78
2023-04-30T06:45:28.923Z,7.63
2023-04-30T06:47:55.907Z,7.82
2023-04-30T06:50:22.578Z,8.92
2023-04-30T06:52:49.229Z,9.49
2023-04-30T06:55:16.125Z,9.20
2023-04-30T06:57:42.868Z,10.04
2023-04-30T07:00:09.342Z,10.37
2023-04-30T07:02:36.290Z,9.74
2023-04-30T07:05:03.160Z,9.83
2023-04-30T07:07:29.675Z,9.30
2023-04-30T07:09:56.672Z,9.26
2023-04-30T07:12:23.688Z,9.46
2023-04-30T07:14:50.092Z,9.75
2023-04-30T07:17:16.704Z,9.87
2023-04-30T07:19:43.666Z,9.62
2023-04-30T07:22:10.109Z,8.93
2023-04-30T07:24:36.633Z,9.11
2023-04-30T07:27:04.017Z,9.13
2023-04-30T07:29:30.753Z,9.87
2023-04-30T07:31:57.119Z,10.92
2023-04-30T07:34:24.427Z,11.71
2023-04-30T07:36:50.888Z,11.96
2023-04-30T07:39:17.920Z,11.93
2023-04-30T07:41:44.383Z,12.74
2023-04-30T07:44:11.987Z,13.07
2023-04-30T07:46:38.601Z,13.98
2023-04-30T07:49:05.113Z,15.39
2023-04-30T07:51:33.010Z,14.14
2023-04-30T07:54:00.471Z,13.00
2023-04-30T07:56:27.105Z,12.28
2023-04-30T07:58:53.580Z,12.71
2023-04-30T08:01:23.068Z,11.66
2023-04-30T08:03:49.652Z,11.11
2023-04-30T08:06:16.146Z,11.38
2023-04-30T08:08:42.598Z,11.84
2023-04-30T08:11:09.032Z,12.04
2023-04-30T08:13:36.816Z,12.30
2023-04-30T08:16:03.340Z,11.52
2023-04-30T08:18:32.226Z,11.94
2023-04-30T08:21:00.218Z,11.95
2023-04-30T08:23:27.385Z,11.97
2023-04-30T08:25:53.881Z,11.11
2023-04-30T08:28:20.423Z,10.64
2023-04-30T08:30:46.862Z,11.24
2023-04-30T08:33:13.399Z,11.06
2023-04-30T08:35:39.855Z,11.05
2023-04-30T08:38:06.323Z,11.07
2023-04-30T08:40:50.337Z,11.27
2023-04-30T08:43:18.561Z,10.76
2023-04-30T08:45:45.555Z,11.14
2023-04-30T08:48:15.234Z,11.65
2023-04-30T08:50:41.974Z,11.89
2023-04-30T08:53:10.848Z,11.76
2023-04-30T08:55:39.807Z,11.56
2023-04-30T08:58:07.995Z,11.36
2023-04-30T09:00:37.786Z,11.10
2023-04-30T09:03:05.176Z,11.09
2023-04-30T09:05:31.856Z,11.27
2023-04-30T09:08:03.554Z,11.30
2023-04-30T09:10:35.214Z,10.88
2023-04-30T09:13:04.729Z,11.26
2023-04-30T09:15:32.210Z,11.51
2023-04-30T09:18:17.697Z,11.31
2023-04-30T09:20:59.159Z,11.15
2023-04-30T09:23:25.812Z,11.21
2023-04-30T09:25:52.390Z,11.19
2023-04-30T09:28:23.923Z,11.07
2023-04-30T09:30:51.494Z,11.57
2023-04-30T09:33:18.253Z,11.32
2023-04-30T09:35:44.997Z,11.12
2023-04-30T09:38:27.890Z,11.42
2023-04-30T09:40:54.400Z,11.37
2023-04-30T09:43:20.865Z,11.47
2023-04-30T09:45:49.932Z,11.67
2023-04-30T09:48:17.916Z,11.52
2023-04-30T09:50:47.924Z,11.69
2023-04-30T09:53:14.879Z,11.96
2023-04-30T09:55:47.400Z,12.04
2023-04-30T09:58:15.569Z,11.88
2023-04-30T10:00:43.333Z,11.67
2023-04-30T10:03:11.429Z,11.58
2023-04-30T10:05:41.428Z,11.69
2023-04-30T10:08:19.121Z,12.03
2023-04-30T10:10:50.406Z,11.52
2023-04-30T10:13:19.666Z,11.83
2023-04-30T10:15:52.415Z,12.08
2023-04-30T10:18:28.388Z,11.89
2023-04-30T10:20:55.355Z,11.99
2023-04-30T10:23:22.324Z,11.89
2023-04-30T10:25:51.251Z,11.51
2023-04-30T10:28:17.769Z,12.02
2023-04-30T10:30:44.418Z,11.63
2023-04-30T10:33:37.386Z,12.22
2023-04-30T10:36:09.086Z,12.08
2023-04-30T10:38:37.562Z,12.17
2023-04-30T10:41:07.047Z,12.11
2023-04-30T10:43:36.516Z,12.07
2023-04-30T10:46:04.245Z,12.55
2023-04-30T10:48:34.946Z,12.74
2023-04-30T10:51:01.527Z,12.46
2023-04-30T10:53:32.143Z,11.87
2023-04-30T10:56:09.148Z,12.21
2023-04-30T10:58:37.275Z,11.65
2023-04-30T11:01:11.461Z,12.07
2023-04-30T11:03:40.217Z,12.22
2023-04-30T11:06:20.394Z,12.07
2023-04-30T11:08:47.216Z,12.03
2023-04-30T11:11:22.885Z,12.43
2023-04-30T11:14:01.219Z,12.73
2023-04-30T11:16:34.387Z,12.22
2023-04-30T11:19:11.656Z,12.69
2023-04-30T11:21:41.966Z,12.83
2023-04-30T11:24:08.483Z,12.80
2023-04-30T11:27:03.898Z,12.96
2023-04-30T11:29:30.933Z,12.88
2023-04-30T11:32:00.899Z,12.56
2023-04-30T11:34:27.333Z,12.20
2023-04-30T11:36:58.923Z,12.18
2023-04-30T11:39:28.316Z,12.79
2023-04-30T11:41:54.730Z,12.57
2023-04-30T11:44:28.264Z,12.58
2023-04-30T11:46:55.007Z,12.83
2023-04-30T11:49:21.434Z,13.16
2023-04-30T11:51:51.849Z,13.27
2023-04-30T11:54:18.779Z,13.38
2023-04-30T11:56:49.115Z,13.32
2023-04-30T11:59:17.507Z,12.93
2023-04-30T12:01:44.196Z,12.94
2023-04-30T12:04:11.293Z,12.82
2023-04-30T12:06:38.026Z,13.08
2023-04-30T12:09:08.935Z,13.21
2023-04-30T12:11:36.211Z,13.50
2023-04-30T12:14:05.152Z,13.16
2023-04-30T12:16:51.026Z,13.14
2023-04-30T12:19:23.369Z,12.79
2023-04-30T12:21:50.525Z,12.56
2023-04-30T12:24:19.120Z,12.70
2023-04-30T12:26:46.163Z,12.78
2023-04-30T12:29:17.869Z,13.47
2023-04-30T12:31:45.853Z,13.26
2023-04-30T12:34:14.791Z,13.21
2023-04-30T12:36:44.688Z,13.24
2023-04-30T12:39:16.254Z,13.71
2023-04-30T12:41:45.052Z,13.50
2023-04-30T12:44:15.441Z,13.41
2023-04-30T12:46:42.632Z,13.80
2023-04-30T12:49:09.435Z,13.93
2023-04-30T12:51:36.192Z,14.36
2023-04-30T12:54:02.642Z,14.30
2023-04-30T12:56:29.084Z,14.26
2023-04-30T12:58:55.650Z,14.15
2023-04-30T13:01:24.353Z,13.98
2023-04-30T13:03:53.949Z,14.52
2023-04-30T13:06:22.787Z,14.31
2023-04-30T13:08:57.927Z,14.21
2023-04-30T13:11:26.960Z,14.06
2023-04-30T13:13:55.561Z,14.02
2023-04-30T13:16:23.109Z,14.21
2023-04-30T13:18:49.612Z,14.14
2023-04-30T13:21:16.055Z,13.81
2023-04-30T13:23:51.866Z,14.39
2023-04-30T13:26:19.653Z,14.32
2023-04-30T13:28:46.075Z,14.15
2023-04-30T13:31:12.607Z,13.90
2023-04-30T13:33:39.672Z,13.74
2023-04-30T13:36:06.773Z,14.18
2023-04-30T13:38:33.249Z,14.59
2023-04-30T13:40:59.711Z,14.47
2023-04-30T13:43:26.140Z,14.45
2023-04-30T13:45:52.652Z,14.70
2023-04-30T13:48:19.175Z,14.58
2023-04-30T13:50:45.874Z,14.83
2023-04-30T13:53:12.239Z,14.91
2023-04-30T13:55:38.788Z,14.37
2023-04-30T13:58:05.222Z,14.93
2023-04-30T14:00:31.726Z,15.03
2023-04-30T14:02:58.584Z,15.05
2023-04-30T14:05:25.192Z,14.90
2023-04-30T14:07:51.712Z,14.75
2023-04-30T14:10:18.167Z,14.78
2023-04-30T14:12:44.627Z,15.43
2023-04-30T14:15:11.444Z,15.38
2023-04-30T14:17:38.747Z,15.40
2023-04-30T14:20:05.993Z,14.99
2023-04-30T14:22:34.594Z,15.22
2023-04-30T14:25:01.185Z,14.72
2023-04-30T14:27:27.678Z,14.88
2023-04-30T14:29:54.583Z,15.62
2023-04-30T14:32:21.455Z,15.56
2023-04-30T14:34:47.917Z,15.84
2023-04-30T14:37:15.767Z,14.53
2023-04-30T14:39:42.844Z,15.58
2023-04-30T14:42:09.622Z,15.71
2023-04-30T14:44:37.379Z,15.81
2023-04-30T14:47:04.654Z,15.79
2023-04-30T14:49:31.381Z,15.84
2023-04-30T14:51:57.798Z,15.70
2023-04-30T14:54:24.240Z,15.40
2023-04-30T14:56:50.756Z,15.12
2023-04-30T14:59:17.749Z,15.02
2023-04-30T15:01:44.232Z,15.07
2023-04-30T15:04:10.790Z,15.40
2023-04-30T15:06:37.288Z,15.39
2023-04-30T15:09:03.940Z,15.32
2023-04-30T15:11:30.389Z,15.25
2023-04-30T15:13:56.857Z,15.60
2023-04-30T15:16:24.336Z,16.18
2023-04-30T15:18:50.846Z,16.19
2023-04-30T15:21:17.365Z,15.98
2023-04-30T15:23:44.295Z,16.04
2023-04-30T15:26:11.095Z,15.99
2023-04-30T15:28:37.530Z,15.96
2023-04-30T15:31:04.578Z,15.72
2023-04-30T15:33:31.515Z,16.13
2023-04-30T15:36:00.151Z,15.68
2023-04-30T15:38:27.757Z,15.75
2023-04-30T15:40:54.204Z,15.70
2023-04-30T15:43:21.977Z,15.81
2023-04-30T15:45:48.810Z,15.73
2023-04-30T15:48:15.403Z,15.68
2023-04-30T15:50:41.947Z,15.91
2023-04-30T15:53:09.182Z,15.18
2023-04-30T15:55:36.615Z,15.60
2023-04-30T15:58:04.299Z,15.63
2023-04-30T16:00:30.742Z,15.25
2023-04-30T16:02:57.290Z,15.41
2023-04-30T16:05:23.935Z,15.93
2023-04-30T16:07:52.116Z,15.60
2023-04-30T16:10:19.968Z,15.44
2023-04-30T16:12:46.652Z,15.19
2023-04-30T16:15:13.108Z,15.02
2023-04-30T16:17:39.695Z,15.16
2023-04-30T16:20:07.167Z,14.86
2023-04-30T16:22:37.370Z,15.24
2023-04-30T16:25:04.447Z,15.15
2023-04-30T16:27:31.209Z,14.93
2023-04-30T16:29:57.874Z,15.14
2023-04-30T16:32:24.597Z,14.87
2023-04-30T16:34:51.488Z,14.63
2023-04-30T16:37:17.987Z,14.73
2023-04-30T16:39:44.415Z,14.73
2023-04-30T16:42:11.462Z,14.70
2023-04-30T16:44:37.920Z,14.43
2023-04-30T16:47:04.357Z,14.18
2023-04-30T16:49:31.084Z,14.06
2023-04-30T16:51:57.470Z,14.36
2023-04-30T16:54:24.175Z,13.77
2023-04-30T16:56:50.619Z,14.14
2023-04-30T16:59:17.073Z,14.15
2023-04-30T17:01:43.687Z,14.21
2023-04-30T17:04:11.873Z,13.83
2023-04-30T17:06:39.277Z,13.43
2023-04-30T17:09:06.636Z,13.43
2023-04-30T17:12:28.742Z,13.66
2023-04-30T17:14:30.804Z,13.80
2023-04-30T17:16:57.550Z,13.44
2023-04-30T17:19:24.100Z,13.56
2023-04-30T17:21:51.023Z,13.71
2023-04-30T17:24:17.489Z,13.62
2023-04-30T17:26:43.967Z,13.49
2023-04-30T17:29:10.401Z,13.30
2023-04-30T17:31:36.913Z,13.17
2023-04-30T17:34:03.404Z,12.96
2023-04-30T17:36:30.399Z,13.09
2023-04-30T17:38:57.069Z,13.01
2023-04-30T17:41:23.801Z,12.88
2023-04-30T17:43:51.729Z,12.85
2023-04-30T17:46:18.312Z,12.78
2023-04-30T17:48:45.097Z,12.78
2023-04-30T17:51:11.510Z,12.88
2023-04-30T17:53:38.256Z,12.75
2023-04-30T17:56:44.595Z,12.55
2023-04-30T17:59:11.328Z,12.35
2023-04-30T18:01:38.311Z,12.54
2023-04-30T18:04:10.494Z,12.43
2023-04-30T18:06:37.172Z,12.38
2023-04-30T18:09:04.361Z,12.27
2023-04-30T18:11:31.085Z,12.17
2023-04-30T18:13:57.553Z,12.24
2023-04-30T18:16:24.144Z,11.96
2023-04-30T18:18:51.057Z,11.89
2023-04-30T18:21:18.552Z,11.61
2023-04-30T18:23:45.480Z,11.77
2023-04-30T18:26:12.166Z,11.39
2023-04-30T18:28:38.708Z,11.69
2023-04-30T18:31:05.237Z,11.52
2023-04-30T18:33:31.921Z,11.39
2023-04-30T18:36:01.855Z,11.32
2023-04-30T18:38:29.596Z,11.43
2023-04-30T18:40:56.222Z,11.27
2023-04-30T18:43:23.442Z,11.00
2023-04-30T18:45:50.038Z,11.14
2023-04-30T18:48:18.968Z,11.06
2023-04-30T18:50:46.638Z,11.05
2023-04-30T18:53:13.600Z,10.74
2023-04-30T18:55:40.310Z,10.97
2023-04-30T18:58:06.913Z,10.72
2023-04-30T19:00:45.659Z,10.45
2023-04-30T19:03:40.052Z,10.18
2023-04-30T19:06:08.693Z,10.37
2023-04-30T19:08:41.220Z,10.46
2023-04-30T19:11:10.671Z,10.22
2023-04-30T19:13:37.273Z,10.29
2023-04-30T19:16:04.393Z,10.26
2023-04-30T19:18:30.972Z,9.98
2023-04-30T19:21:02.611Z,9.94
2023-04-30T19:23:32.668Z,10.10
2023-04-30T19:25:59.723Z,9.91
2023-04-30T19:28:26.317Z,9.96
2023-04-30T19:30:56.906Z,9.98
2023-04-30T19:33:24.639Z,9.66
2023-04-30T19:35:53.520Z,9.60
2023-04-30T19:38:43.393Z,9.77
2023-04-30T19:41:10.295Z,9.37
2023-04-30T19:43:40.248Z,9.43
2023-04-30T19:46:07.754Z,9.61
2023-04-30T19:48:37.354Z,9.15
2023-04-30T19:51:05.104Z,9.44
2023-04-30T19:53:32.188Z,9.26
2023-04-30T19:56:08.728Z,9.26
2023-04-30T19:58:42.469Z,9.03
2023-04-30T20:01:12.722Z,9.07
2023-04-30T20:03:45.339Z,9.18
2023-04-30T20:06:12.606Z,8.79
2023-04-30T20:08:42.054Z,9.05
2023-04-30T20:11:29.216Z,9.04
2023-04-30T20:14:04.687Z,8.81
2023-04-30T20:16:49.384Z,9.18
2023-04-30T20:19:16.763Z,9.16
2023-04-30T20:21:47.497Z,8.93
2023-04-30T20:24:21.215Z,8.87
2023-04-30T20:26:49.819Z,9.00
2023-04-30T20:29:18.571Z,8.56
2023-04-30T20:31:45.160Z,8.86
2023-04-30T20:34:11.995Z,8.78
2023-04-30T20:36:49.182Z,8.83
2023-04-30T20:39:44.395Z,8.23
2023-04-30T20:42:10.987Z,8.76
2023-04-30T20:44:40.935Z,8.48
2023-04-30T20:47:14.152Z,8.55
2023-04-30T20:49:41.415Z,8.46
2023-04-30T20:52:07.997Z,8.29
2023-04-30T20:54:34.590Z,8.32
2023-04-30T20:57:04.594Z,8.46
2023-04-30T20:59:34.801Z,8.44
2023-04-30T21:02:01.715Z,8.25
2023-04-30T21:04:28.673Z,8.32
2023-04-30T21:06:55.124Z,8.24
2023-04-30T21:09:22.299Z,8.47
2023-04-30T21:11:49.313Z,8.39
2023-04-30T21:14:15.953Z,8.39
2023-04-30T21:16:42.710Z,8.20
2023-04-30T21:19:09.611Z,8.60
2023-04-30T21:21:36.078Z,7.87
2023-04-30T21:24:02.675Z,7.93
2023-04-30T21:26:29.365Z,8.12
2023-04-30T21:28:55.908Z,7.93
2023-04-30T21:31:23.781Z,7.83
2023-04-30T21:33:50.461Z,7.82
2023-04-30T21:36:17.733Z,7.88
2023-04-30T21:38:47.546Z,7.71
2023-04-30T21:41:15.428Z,7.95
2023-04-30T21:43:42.701Z,7.96
2023-04-30T21:46:09.921Z,8.20
2023-04-30T21:48:38.468Z,7.78
2023-04-30T21:51:17.117Z,7.95
2023-04-30T21:53:46.815Z,7.98
2023-04-30T21:56:13.753Z,7.88
2023-04-30T21:58:40.285Z,7.75
2023-04-30T22:01:07.329Z,7.60
2023-04-30T22:03:37.165Z,7.75
2023-04-30T22:06:10.045Z,7.72
2023-04-30T22:08:38.920Z,7.78
2023-04-30T22:11:05.924Z,7.91
2023-04-30T22:13:32.467Z,7.86
2023-04-30T22:15:59.039Z,7.45
2023-04-30T22:18:25.984Z,7.56
2023-04-30T22:20:52.531Z,7.70
2023-04-30T22:23:21.506Z,7.81
2023-04-30T22:25:48.564Z,7.91
2023-04-30T22:28:19.382Z,7.36
2023-04-30T22:30:46.201Z,7.55
2023-04-30T22:33:12.865Z,7.86
2023-04-30T22:35:39.638Z,7.43
2023-04-30T22:38:06.830Z,7.67
2023-04-30T22:40:34.856Z,7.28
2023-04-30T22:43:02.026Z,7.29
2023-04-30T22:45:30.160Z,7.42
2023-04-30T22:47:59.413Z,7.29
2023-04-30T22:50:27.356Z,7.31
2023-04-30T22:52:54.454Z,7.16
2023-04-30T22:55:21.052Z,7.07
2023-04-30T22:57:47.523Z,6.70
2023-04-30T23:00:14.499Z,6.70
2023-04-30T23:02:41.148Z,6.74
2023-04-30T23:05:12.027Z,6.48
2023-04-30T23:07:39.054Z,7.11
2023-04-30T23:10:06.303Z,7.07
2023-04-30T23:12:32.834Z,7.06
2023-04-30T23:14:59.252Z,7.00
2023-04-30T23:17:26.917Z,6.88
2023-04-30T23:19:53.749Z,6.88
2023-04-30T23:22:20.462Z,6.71
2023-04-30T23:24:46.894Z,6.95
2023-04-30T23:27:13.417Z,6.84
2023-04-30T23:29:39.980Z,6.87
2023-04-30T23:32:06.569Z,6.79
2023-04-30T23:34:33.048Z,6.76
2023-04-30T23:36:59.542Z,6.83
2023-04-30T23:39:26.010Z,6.71
2023-04-30T23:41:52.596Z,6.75
2023-04-30T23:44:19.620Z,6.75
2023-04-30T23:46:46.876Z,6.83
2023-04-30T23:49:13.421Z,6.71
2023-04-30T23:51:39.978Z,6.71
2023-04-30T23:54:06.478Z,6.57
2023-04-30T23:56:37.271Z,6.63
2023-04-30T23:59:03.913Z,6.31
